createdAt,value
2019-05-23T00:02:03.607Z,12.94
2019-05-23T00:06:59.612Z,12.97
2019-05-23T00:11:57.502Z,13.00
2019-05-23T00:16:54.406Z,13.05
2019-05-23T00:21:51.168Z,12.79
2019-05-23T00:26:49.302Z,12.79
2019-05-23T00:31:46.965Z,12.80
2019-05-23T00:36:44.766Z,12.73
2019-05-23T00:41:42.506Z,12.80
2019-05-23T00:46:39.095Z,12.73
2019-05-23T00:51:36.808Z,12.61
2019-05-23T00:56:33.671Z,12.60
2019-05-23T01:01:30.655Z,12.57
2019-05-23T01:06:27.776Z,12.61
2019-05-23T01:11:24.796Z,12.35
2019-05-23T01:16:21.501Z,12.35
2019-05-23T01:21:18.290Z,12.31
2019-05-23T01:26:14.859Z,12.31
2019-05-23T01:31:13.326Z,12.32
2019-05-23T01:36:10.740Z,12.28
2019-05-23T01:41:07.751Z,12.20
2019-05-23T01:46:04.551Z,12.18
2019-05-23T01:51:01.847Z,12.04
2019-05-23T01:55:58.783Z,12.04
2019-05-23T02:00:55.927Z,11.94
2019-05-23T02:05:53.080Z,12.02
2019-05-23T02:10:49.885Z,11.86
2019-05-23T02:15:46.780Z,11.80
2019-05-23T02:20:44.138Z,11.70
2019-05-23T02:25:41.048Z,11.60
2019-05-23T02:30:38.015Z,11.59
2019-05-23T02:35:35.591Z,11.52
2019-05-23T02:40:32.609Z,11.45
2019-05-23T02:45:30.758Z,11.29
2019-05-23T02:50:27.598Z,11.14
2019-05-23T02:55:25.550Z,11.10
2019-05-23T03:00:22.190Z,11.10
2019-05-23T03:05:19.596Z,10.94
2019-05-23T03:10:16.725Z,10.93
2019-05-23T03:15:14.170Z,10.81
2019-05-23T03:20:12.226Z,10.71
2019-05-23T03:25:08.928Z,10.59
2019-05-23T03:30:05.915Z,10.64
2019-05-23T03:35:03.367Z,10.54
2019-05-23T03:40:00.470Z,10.64
2019-05-23T03:44:57.549Z,10.49
2019-05-23T03:49:54.660Z,10.46
2019-05-23T03:54:52.200Z,10.57
2019-05-23T03:59:49.597Z,10.86
2019-05-23T04:04:46.465Z,10.60
2019-05-23T04:09:44.715Z,10.61
2019-05-23T04:14:40.063Z,10.56
2019-05-23T04:19:35.811Z,10.74
2019-05-23T04:24:31.938Z,11.10
2019-05-23T04:29:29.128Z,11.62
2019-05-23T04:34:26.959Z,12.65
2019-05-23T04:39:23.113Z,13.04
2019-05-23T04:44:19.194Z,13.05
2019-05-23T04:49:15.229Z,13.22
2019-05-23T04:54:12.611Z,13.23
2019-05-23T04:59:08.749Z,13.83
2019-05-23T05:04:05.569Z,14.43
2019-05-23T05:09:03.095Z,14.70
2019-05-23T05:13:59.637Z,14.70
2019-05-23T05:18:56.141Z,14.58
2019-05-23T05:23:52.652Z,14.33
2019-05-23T05:28:48.426Z,14.37
2019-05-23T05:33:44.621Z,14.44
2019-05-23T05:38:41.077Z,14.41
2019-05-23T05:43:37.048Z,14.65
2019-05-23T05:48:35.140Z,14.81
2019-05-23T05:53:31.040Z,14.92
2019-05-23T05:58:27.450Z,14.50
2019-05-23T06:03:22.353Z,14.25
2019-05-23T06:08:17.689Z,14.03
2019-05-23T06:13:13.218Z,13.87
2019-05-23T06:18:08.805Z,13.79
2019-05-23T06:23:04.288Z,13.99
2019-05-23T06:27:59.938Z,14.04
2019-05-23T06:32:56.719Z,14.33
2019-05-23T06:37:52.653Z,14.37
2019-05-23T06:42:50.915Z,14.62
2019-05-23T06:47:46.223Z,14.63
2019-05-23T06:52:42.911Z,14.63
2019-05-23T06:57:38.633Z,14.60
2019-05-23T07:02:34.838Z,14.84
2019-05-23T07:07:30.892Z,14.91
2019-05-23T07:12:26.825Z,15.19
2019-05-23T07:17:23.365Z,15.33
2019-05-23T07:22:19.823Z,15.62
2019-05-23T07:27:15.733Z,15.73
2019-05-23T07:32:12.025Z,15.92
2019-05-23T07:37:08.195Z,16.09
2019-05-23T07:42:04.211Z,16.20
2019-05-23T07:47:00.675Z,17.02
2019-05-23T07:52:00.868Z,18.50
2019-05-23T07:57:00.793Z,19.22
2019-05-23T08:01:58.961Z,20.26
2019-05-23T08:06:56.376Z,20.77
2019-05-23T08:11:53.318Z,21.50
2019-05-23T08:16:50.488Z,21.89
2019-05-23T08:21:48.370Z,22.53
2019-05-23T08:26:44.692Z,21.95
2019-05-23T08:31:41.006Z,22.11
2019-05-23T08:36:37.664Z,22.55
2019-05-23T08:41:34.524Z,22.76
2019-05-23T08:46:30.919Z,23.37
2019-05-23T08:51:28.597Z,23.28
2019-05-23T08:56:24.644Z,22.23
2019-05-23T09:01:21.635Z,22.73
2019-05-23T09:06:18.446Z,23.00
2019-05-23T09:11:14.562Z,22.91
2019-05-23T09:16:10.669Z,23.51
2019-05-23T09:21:07.333Z,23.98
2019-05-23T09:26:05.250Z,24.24
2019-05-23T09:31:00.358Z,23.92
2019-05-23T09:35:57.107Z,23.83
2019-05-23T09:40:54.780Z,23.73
2019-05-23T09:45:50.564Z,23.17
2019-05-23T09:50:45.603Z,22.90
2019-05-23T09:55:42.271Z,22.47
2019-05-23T10:00:38.707Z,22.88
2019-05-23T10:05:43.324Z,23.03
2019-05-23T10:10:37.437Z,23.81
2019-05-23T10:15:34.838Z,23.58
2019-05-23T10:20:30.620Z,23.47
2019-05-23T10:25:27.954Z,23.92
2019-05-23T10:30:23.639Z,23.73
2019-05-23T10:35:19.634Z,23.71
2019-05-23T10:40:16.979Z,23.69
2019-05-23T10:45:13.716Z,23.05
2019-05-23T10:50:09.582Z,23.15
2019-05-23T10:55:06.009Z,23.78
2019-05-23T11:00:03.532Z,23.98
2019-05-23T11:05:12.211Z,24.28
2019-05-23T11:10:00.703Z,24.11
2019-05-23T11:14:56.748Z,24.05
2019-05-23T11:19:53.149Z,23.65
2019-05-23T11:24:49.836Z,23.69
2019-05-23T11:29:46.074Z,23.96
2019-05-23T11:34:43.375Z,24.53
2019-05-23T11:39:49.873Z,24.38
2019-05-23T11:44:39.411Z,24.89
2019-05-23T11:49:36.157Z,25.10
2019-05-23T11:54:32.337Z,25.16
2019-05-23T11:59:28.453Z,25.21
2019-05-23T12:04:24.268Z,25.03
2019-05-23T12:09:19.318Z,24.77
2019-05-23T12:14:13.934Z,23.77
2019-05-23T12:19:09.819Z,23.51
2019-05-23T12:24:05.829Z,23.74
2019-05-23T12:29:02.438Z,23.95
2019-05-23T12:33:58.168Z,24.02
2019-05-23T12:38:54.416Z,24.36
2019-05-23T12:43:49.328Z,24.01
2019-05-23T12:48:45.425Z,23.86
2019-05-23T12:53:41.632Z,23.58
2019-05-23T12:58:37.334Z,23.63
2019-05-23T13:03:33.528Z,24.16
2019-05-23T13:08:29.795Z,24.74
2019-05-23T13:13:26.867Z,24.23
2019-05-23T13:18:23.171Z,24.13
2019-05-23T13:23:21.393Z,24.14
2019-05-23T13:28:16.508Z,23.87
2019-05-23T13:33:11.965Z,23.62
2019-05-23T13:38:07.658Z,23.56
2019-05-23T13:43:07.419Z,23.66
2019-05-23T13:48:03.216Z,23.87
2019-05-23T13:52:59.543Z,23.84
2019-05-23T13:57:56.381Z,23.81
2019-05-23T14:02:52.170Z,23.92
2019-05-23T14:07:49.206Z,23.71
2019-05-23T14:12:44.491Z,23.36
2019-05-23T14:17:40.915Z,23.43
2019-05-23T14:22:36.459Z,23.37
2019-05-23T14:27:32.092Z,23.32
2019-05-23T14:32:27.973Z,23.43
2019-05-23T14:37:23.716Z,23.34
2019-05-23T14:42:20.369Z,23.44
2019-05-23T14:47:16.268Z,23.12
2019-05-23T14:52:12.512Z,23.20
2019-05-23T14:57:08.389Z,23.20
2019-05-23T15:02:04.345Z,23.24
2019-05-23T15:07:00.248Z,23.27
2019-05-23T15:11:56.394Z,23.34
2019-05-23T15:16:53.370Z,23.27
2019-05-23T15:21:49.242Z,23.02
2019-05-23T15:26:45.780Z,22.98
2019-05-23T15:31:41.815Z,23.10
2019-05-23T15:36:38.910Z,23.10
2019-05-23T15:41:35.555Z,23.10
2019-05-23T15:46:31.309Z,23.17
2019-05-23T15:51:27.398Z,23.13
2019-05-23T15:56:28.049Z,23.21
2019-05-23T16:01:23.157Z,22.99
2019-05-23T16:06:19.895Z,22.66
2019-05-23T16:11:17.701Z,22.72
2019-05-23T16:16:13.334Z,22.63
2019-05-23T16:21:10.243Z,22.75
2019-05-23T16:26:06.298Z,22.57
2019-05-23T16:31:02.119Z,22.53
2019-05-23T16:35:58.735Z,22.44
2019-05-23T16:40:54.382Z,22.33
2019-05-23T16:45:50.396Z,22.25
2019-05-23T16:50:46.293Z,22.17
2019-05-23T16:55:42.153Z,22.35
2019-05-23T17:00:38.641Z,22.22
2019-05-23T17:05:34.839Z,22.14
2019-05-23T17:10:30.557Z,22.00
2019-05-23T17:15:26.397Z,22.04
2019-05-23T17:20:22.267Z,22.11
2019-05-23T17:25:19.469Z,21.99
2019-05-23T17:30:15.035Z,22.02
2019-05-23T17:35:11.864Z,22.00
2019-05-23T17:40:23.233Z,22.07
2019-05-23T17:45:06.772Z,21.95
2019-05-23T17:50:02.844Z,21.92
2019-05-23T17:54:58.939Z,21.92
2019-05-23T17:59:54.661Z,21.80
2019-05-23T18:04:50.699Z,21.77
2019-05-23T18:09:46.408Z,21.73
2019-05-23T18:14:43.981Z,21.62
2019-05-23T18:19:39.528Z,21.62
2019-05-23T18:24:35.241Z,21.51
2019-05-23T18:29:31.194Z,21.43
2019-05-23T18:34:27.339Z,21.33
2019-05-23T18:39:24.015Z,21.15
2019-05-23T18:44:20.840Z,21.02
2019-05-23T18:49:17.332Z,20.99
2019-05-23T18:54:13.124Z,20.92
2019-05-23T18:59:08.894Z,20.80
2019-05-23T19:04:04.586Z,20.70
2019-05-23T19:09:00.399Z,20.55
2019-05-23T19:13:56.224Z,20.44
2019-05-23T19:18:52.360Z,20.36
2019-05-23T19:23:48.291Z,20.22
2019-05-23T19:28:45.028Z,20.24
2019-05-23T19:33:41.684Z,20.16
2019-05-23T19:38:37.203Z,20.11
2019-05-23T19:43:34.305Z,20.02
2019-05-23T19:48:30.365Z,19.82
2019-05-23T19:53:26.380Z,19.77
2019-05-23T19:58:22.260Z,19.70
2019-05-23T20:03:19.143Z,19.58
2019-05-23T20:08:14.791Z,19.49
2019-05-23T20:13:10.488Z,19.33
2019-05-23T20:18:06.369Z,19.12
2019-05-23T20:23:03.228Z,19.02
2019-05-23T20:27:59.364Z,18.90
2019-05-23T20:32:55.136Z,18.93
2019-05-23T20:37:50.854Z,18.71
2019-05-23T20:42:47.907Z,18.77
2019-05-23T20:47:43.826Z,18.71
2019-05-23T20:52:39.558Z,18.43
2019-05-23T20:57:36.325Z,18.45
2019-05-23T21:02:32.874Z,18.37
2019-05-23T21:07:28.081Z,18.23
2019-05-23T21:12:29.871Z,18.19
2019-05-23T21:17:24.506Z,18.11
2019-05-23T21:22:20.047Z,18.05
2019-05-23T21:27:16.928Z,17.87
2019-05-23T21:32:12.360Z,17.85
2019-05-23T21:37:08.530Z,17.68
2019-05-23T21:42:04.360Z,17.63
2019-05-23T21:47:00.342Z,17.60
2019-05-23T21:51:56.410Z,17.49
2019-05-23T21:56:55.516Z,17.48
2019-05-23T22:01:50.462Z,17.33
2019-05-23T22:06:46.347Z,17.27
2019-05-23T22:11:44.818Z,17.11
2019-05-23T22:16:40.405Z,16.97
2019-05-23T22:21:36.194Z,16.91
2019-05-23T22:26:31.991Z,16.84
2019-05-23T22:31:27.899Z,16.57
2019-05-23T22:36:23.692Z,16.64
2019-05-23T22:41:19.464Z,16.64
2019-05-23T22:46:16.467Z,16.47
2019-05-23T22:51:11.988Z,16.51
2019-05-23T22:56:07.969Z,16.53
2019-05-23T23:01:05.071Z,16.51
2019-05-23T23:06:01.627Z,16.41
2019-05-23T23:10:57.373Z,16.16
2019-05-23T23:15:53.146Z,16.31
2019-05-23T23:20:49.082Z,16.32
2019-05-23T23:25:45.147Z,15.91
2019-05-23T23:30:41.793Z,15.97
2019-05-23T23:35:38.344Z,15.94
2019-05-23T23:40:33.872Z,15.79
2019-05-23T23:45:29.350Z,15.52
2019-05-23T23:50:25.181Z,15.75
2019-05-23T23:55:20.771Z,15.77
